Time;durP1;ratioP1;P1;durP2;ratioP2;P2;SDS_P1;SDS_P2;PMS_P1;PMS_P2;Temp;Humidity;BMP_temperature;BMP_pressure;BME280_temperature;BME280_humidity;BME280_pressure;Samples;Min_cycle;Max_cycle;Signal;HPM_P1;HPM_P2
2021/04/21 00:00:11;;;;;;;36.28;22.55;;;;;;;7.58;93.28;99990.66;5116715;28;20108;-71
2021/04/21 00:02:39;;;;;;;36.30;21.58;;;;;;;7.36;92.58;99944.03;5116475;28;20118;-69
2021/04/21 00:05:07;;;;;;;37.50;22.30;;;;;;;7.78;91.55;100003.75;5116646;28;20032;-70
2021/04/21 00:07:35;;;;;;;35.55;21.85;;;;;;;7.49;91.82;99981.38;5116345;28;20068;-68
2021/04/21 00:10:02;;;;;;;40.92;25.10;;;;;;;7.43;93.30;100003.81;5116657;28;20027;-69
2021/04/21 00:12:30;;;;;;;39.63;23.95;;;;;;;7.33;94.60;99997.22;5116243;28;20092;-68
2021/04/21 00:14:55;;;;;;;40.22;25.35;;;;;;;7.24;95.57;100007.44;5115868;28;20113;-69
2021/04/21 00:17:23;;;;;;;40.42;24.67;;;;;;;7.08;96.63;99987.00;5116408;28;20130;-69
2021/04/21 00:19:51;;;;;;;41.90;25.00;;;;;;;7.11;96.52;99992.16;5116045;28;20093;-69
2021/04/21 00:22:19;;;;;;;46.13;25.92;;;;;;;7.20;97.11;100011.19;5116417;28;20028;-69
2021/04/21 00:24:46;;;;;;;41.03;25.23;;;;;;;7.19;97.11;99999.72;5115593;28;20036;-69
2021/04/21 00:27:18;;;;;;;37.08;23.17;;;;;;;7.30;96.15;99985.91;5116219;28;20030;-69
2021/04/21 00:29:47;;;;;;;42.80;26.27;;;;;;;7.35;94.97;100011.28;5116018;28;20422;-69
2021/04/21 00:32:15;;;;;;;42.95;26.30;;;;;;;7.32;95.10;100006.13;5116195;28;20027;-70
2021/04/21 00:34:43;;;;;;;40.50;24.77;;;;;;;7.00;94.30;99940.59;5097603;28;20031;-70
2021/04/21 00:37:10;;;;;;;42.85;25.92;;;;;;;7.31;93.94;100009.72;5097849;28;20023;-69
2021/04/21 00:39:39;;;;;;;38.67;23.92;;;;;;;7.31;93.18;100003.56;5097575;28;20434;-70
2021/04/21 00:42:26;;;;;;;43.88;26.45;;;;;;;7.03;93.73;100001.41;5115935;28;20110;-69
2021/04/21 00:45:10;;;;;;;43.15;26.25;;;;;;;6.87;94.30;99977.47;5115613;28;20051;-69
2021/04/21 00:47:41;;;;;;;46.83;28.33;;;;;;;6.92;94.71;99995.78;5115561;28;20030;-69
2021/04/21 00:50:38;;;;;;;54.47;30.33;;;;;;;6.71;95.74;99985.31;5115597;28;20488;-69
2021/04/21 00:53:27;;;;;;;47.13;28.88;;;;;;;6.80;95.94;99992.81;5099434;28;20515;-69
2021/04/21 00:56:23;;;;;;;49.72;29.50;;;;;;;6.72;96.21;99994.97;5115649;28;20106;-71
2021/04/21 00:59:10;;;;;;;51.92;30.95;;;;;;;6.50;97.10;99991.63;5115029;28;20488;-71
2021/04/21 01:01:37;;;;;;;49.22;28.00;;;;;;;6.40;97.35;99959.44;5097046;28;20063;-69
2021/04/21 01:04:05;;;;;;;49.42;29.10;;;;;;;6.57;97.65;99985.13;5102890;28;20479;-69
2021/04/21 01:06:35;;;;;;;46.28;27.77;;;;;;;6.63;97.20;99990.13;5120165;28;20542;-69
2021/04/21 01:09:02;;;;;;;47.42;28.35;;;;;;;6.65;97.29;100001.50;5115318;28;20038;-70
2021/04/21 01:11:33;;;;;;;49.28;30.15;;;;;;;6.60;97.03;100001.72;5116036;28;20102;-70
2021/04/21 01:14:25;;;;;;;49.13;29.08;;;;;;;6.48;97.16;99997.03;5115318;28;20081;-70
2021/04/21 01:16:59;;;;;;;48.35;28.25;;;;;;;6.43;97.82;100001.66;5114423;28;20048;-71
2021/04/21 01:19:30;;;;;;;48.95;29.45;;;;;;;6.35;98.54;100000.31;5115748;28;20116;-70
2021/04/21 01:22:10;;;;;;;46.53;28.45;;;;;;;6.30;98.24;99984.63;5114939;28;20035;-70
2021/04/21 01:24:59;;;;;;;48.90;29.35;;;;;;;6.40;97.78;100011.56;5115165;28;20365;-75
2021/04/21 01:27:50;;;;;;;49.97;29.50;;;;;;;6.31;98.17;100008.41;5117673;28;20032;-70
2021/04/21 01:30:23;;;;;;;54.75;31.50;;;;;;;6.21;98.87;100016.84;5116736;28;20055;-70
2021/04/21 01:32:52;;;;;;;56.95;32.03;;;;;;;6.08;98.83;99991.84;5116369;28;20036;-70
2021/04/21 01:35:21;;;;;;;61.88;32.47;;;;;;;5.99;99.39;99993.13;5115906;28;20059;-71
2021/04/21 01:37:49;;;;;;;58.75;32.25;;;;;;;6.16;99.64;100016.19;5116096;28;20028;-70
2021/04/21 01:40:21;;;;;;;58.30;31.85;;;;;;;6.32;98.89;100014.56;5096687;28;20128;-71
2021/04/21 01:42:50;;;;;;;57.03;31.38;;;;;;;6.13;99.08;100009.25;5114883;28;20023;-69
2021/04/21 01:45:20;;;;;;;58.72;31.90;;;;;;;5.85;99.48;99980.47;5096460;28;20038;-70
2021/04/21 01:47:48;;;;;;;52.72;30.70;;;;;;;6.17;99.64;100015.25;5096160;28;20040;-69
2021/04/21 01:50:16;;;;;;;48.95;27.55;;;;;;;5.98;99.32;99954.31;5115031;28;20126;-70
2021/04/21 01:52:48;;;;;;;47.63;28.10;;;;;;;6.28;98.68;100011.19;5115223;28;20042;-71
2021/04/21 01:55:19;;;;;;;52.55;29.83;;;;;;;6.25;98.88;100013.13;5115076;28;20111;-72
2021/04/21 01:57:50;;;;;;;56.55;31.55;;;;;;;5.67;99.45;99945.09;5114055;28;20080;-72
2021/04/21 02:00:34;;;;;;;54.67;31.60;;;;;;;5.94;99.78;99984.53;5114255;28;20088;-71
2021/04/21 02:03:33;;;;;;;59.25;29.83;;;;;;;6.00;99.68;100008.94;5114103;28;20085;-70
2021/04/21 02:06:04;;;;;;;58.90;31.13;;;;;;;5.92;100.00;100010.22;5113990;28;20035;-66
2021/04/21 02:08:56;;;;;;;59.88;31.52;;;;;;;5.86;100.00;100010.44;5114380;28;20030;-66
2021/04/21 02:11:25;;;;;;;54.63;31.08;;;;;;;5.74;100.00;99995.97;5114253;28;20031;-67
2021/04/21 02:14:19;;;;;;;55.08;31.73;;;;;;;5.83;100.00;100003.53;5095583;28;20484;-71
2021/04/21 02:17:02;;;;;;;49.67;28.58;;;;;;;5.93;100.00;99982.81;5068111;28;20051;-69
2021/04/21 02:19:52;;;;;;;50.53;28.90;;;;;;;5.77;100.00;99957.94;5114026;28;20031;-70
2021/04/21 02:22:28;;;;;;;54.33;28.95;;;;;;;5.81;100.00;99983.34;5095808;28;20034;-69
2021/04/21 02:25:13;;;;;;;51.63;28.70;;;;;;;6.04;100.00;100001.72;5113551;28;20031;-69
2021/04/21 02:28:03;;;;;;;53.78;29.80;;;;;;;6.06;99.88;100001.66;5095705;28;20185;-72
2021/04/21 02:30:39;;;;;;;53.72;29.58;;;;;;;5.66;99.49;99932.81;5096055;28;20034;-72
2021/04/21 02:33:10;;;;;;;56.78;32.03;;;;;;;6.09;98.94;100005.03;5113721;28;20034;-72
2021/04/21 02:35:49;;;;;;;59.08;30.77;;;;;;;5.92;98.48;99979.31;5113805;28;20437;-71
2021/04/21 02:38:32;;;;;;;57.75;31.52;;;;;;;6.00;98.63;100011.59;5113976;28;20035;-71
2021/04/21 02:40:57;;;;;;;58.17;31.77;;;;;;;5.83;99.19;100007.94;5113557;28;20040;-72
2021/04/21 02:44:08;;;;;;;55.03;30.33;;;;;;;5.84;99.65;100007.88;5095393;28;20115;-72
2021/04/21 02:46:54;;;;;;;55.78;31.08;;;;;;;5.73;99.62;100010.16;5082424;28;20043;-71
2021/04/21 02:49:40;;;;;;;57.95;32.10;;;;;;;5.60;100.00;100007.19;5113653;28;20028;-71
2021/04/21 02:52:15;;;;;;;59.63;32.40;;;;;;;5.20;100.00;99975.41;5112747;28;20092;-70
2021/04/21 02:55:06;;;;;;;57.97;31.92;;;;;;;5.24;100.00;99993.75;5096162;28;20042;-71
2021/04/21 02:57:50;;;;;;;56.67;31.88;;;;;;;5.47;100.00;100011.28;5095336;28;20059;-70
2021/04/21 03:01:16;;;;;;;62.65;32.50;;;;;;;5.34;100.00;100020.66;5095588;28;20066;-70
2021/04/21 03:03:52;;;;;;;59.20;31.98;;;;;;;4.96;100.00;99962.31;5010882;28;20037;-77
2021/04/21 03:06:26;;;;;;;53.90;31.20;;;;;;;5.10;100.00;100002.25;4994522;28;20072;-71
2021/04/21 03:09:02;;;;;;;55.67;30.88;;;;;;;4.91;100.00;99969.56;5086613;28;20374;-71
2021/04/21 03:11:29;;;;;;;52.10;30.48;;;;;;;5.28;100.00;100021.78;5113162;28;20028;-71
2021/04/21 03:14:05;;;;;;;53.92;29.85;;;;;;;5.40;100.00;100020.38;5112833;28;20032;-70
2021/04/21 03:16:41;;;;;;;53.17;28.35;;;;;;;5.41;100.00;100014.19;5113424;28;20079;-70
2021/04/21 03:19:10;;;;;;;57.28;28.13;;;;;;;5.29;100.00;99993.53;5095055;28;20032;-71
2021/04/21 03:21:40;;;;;;;54.90;27.15;;;;;;;5.15;100.00;99957.13;5096084;28;20107;-71
2021/04/21 03:24:08;;;;;;;46.45;27.50;;;;;;;5.49;99.97;100017.34;5113241;28;20066;-70
2021/04/21 03:26:37;;;;;;;47.78;27.25;;;;;;;5.30;99.58;99997.91;5095044;28;20027;-70
2021/04/21 03:29:07;;;;;;;53.58;27.85;;;;;;;5.38;99.76;100015.16;5113008;28;20024;-70
2021/04/21 03:31:36;;;;;;;51.53;28.95;;;;;;;5.30;99.75;100029.63;5115705;28;20032;-71
2021/04/21 03:34:07;;;;;;;52.05;28.75;;;;;;;5.27;99.53;100029.78;5116613;28;20031;-71
2021/04/21 03:36:34;;;;;;;69.10;30.80;;;;;;;5.08;99.95;100027.91;5082326;28;20028;-71
2021/04/21 03:39:00;;;;;;;59.88;32.13;;;;;;;5.00;100.00;100037.91;5065267;28;20126;-71
2021/04/21 03:41:26;;;;;;;52.60;31.95;;;;;;;4.94;100.00;100032.91;5117195;28;20492;-71
2021/04/21 03:43:52;;;;;;;51.60;30.75;;;;;;;4.90;100.00;100036.56;5098369;28;20035;-72
2021/04/21 03:46:18;;;;;;;54.85;31.50;;;;;;;4.85;100.00;100031.47;5098436;28;20126;-69
2021/04/21 03:48:44;;;;;;;52.35;28.95;;;;;;;4.85;100.00;100038.56;5117089;28;20474;-69
2021/04/21 03:51:12;;;;;;;48.80;29.05;;;;;;;4.92;100.00;100040.00;5098540;28;20500;-69
2021/04/21 03:53:39;;;;;;;46.47;27.95;;;;;;;5.06;100.00;100032.38;5098623;28;20040;-71
2021/04/21 03:56:08;;;;;;;45.35;27.45;;;;;;;4.99;100.00;100025.63;5116524;28;20787;-70
2021/04/21 03:58:35;;;;;;;41.47;25.35;;;;;;;4.88;100.00;99993.50;5098561;28;20083;-70
2021/04/21 04:01:07;;;;;;;46.95;26.90;;;;;;;5.08;99.66;100019.97;5116454;28;20428;-71
2021/04/21 04:03:34;;;;;;;44.00;26.52;;;;;;;5.30;98.94;100041.06;5098288;28;20028;-72
2021/04/21 04:06:13;;;;;;;42.22;26.02;;;;;;;5.24;98.74;100040.50;5098306;28;20070;-71
2021/04/21 04:08:50;;;;;;;43.13;26.00;;;;;;;4.89;98.79;99989.91;5083102;28;20040;-71
2021/04/21 04:11:18;;;;;;;49.42;26.92;;;;;;;4.99;99.01;100038.84;5116223;28;20028;-71
2021/04/21 04:13:46;;;;;;;79.13;27.67;;;;;;;5.08;99.63;100049.03;5116476;28;20080;-68
2021/04/21 04:16:17;;;;;;;92.13;28.58;;;;;;;5.10;100.00;100049.84;5116492;28;20048;-70
2021/04/21 04:18:43;;;;;;;53.88;27.95;;;;;;;5.00;100.00;100034.41;5120280;28;20045;-68
2021/04/21 04:21:11;;;;;;;58.67;28.27;;;;;;;5.16;100.00;100059.31;5121600;28;20047;-68
2021/04/21 04:23:39;;;;;;;44.10;27.13;;;;;;;5.21;99.74;100054.72;5120893;28;20031;-69
2021/04/21 04:26:06;;;;;;;43.38;27.50;;;;;;;5.28;99.51;100060.59;5098028;28;20034;-70
2021/04/21 04:28:34;;;;;;;64.57;27.83;;;;;;;5.48;99.73;100063.25;5116745;28;20119;-69
2021/04/21 04:31:01;;;;;;;87.32;27.98;;;;;;;5.50;97.44;100064.06;5115733;28;20441;-72
2021/04/21 04:33:29;;;;;;;50.58;28.02;;;;;;;5.33;98.30;100051.53;5097438;28;20487;-71
2021/04/21 04:35:55;;;;;;;42.63;27.27;;;;;;;5.52;97.97;100069.28;5115665;28;20031;-69
2021/04/21 04:38:21;;;;;;;53.05;27.02;;;;;;;5.56;97.55;100068.22;5115932;28;20035;-70
2021/04/21 04:40:51;;;;;;;130.27;28.63;;;;;;;5.46;96.83;100006.91;5115900;28;20039;-69
2021/04/21 04:43:18;;;;;;;47.38;27.60;;;;;;;5.96;96.25;100072.69;5096438;28;20389;-70
2021/04/21 04:45:50;;;;;;;60.17;26.25;;;;;;;5.88;96.10;100048.28;5115956;28;20039;-71
2021/04/21 04:48:21;;;;;;;60.40;26.33;;;;;;;6.12;96.30;100073.72;5114415;28;20122;-70
2021/04/21 04:50:48;;;;;;;55.70;24.85;;;;;;;6.15;95.65;100073.59;5115914;28;20380;-71
2021/04/21 04:53:16;;;;;;;59.30;27.15;;;;;;;6.19;95.41;100079.63;5115354;28;20032;-68
2021/04/21 04:55:43;;;;;;;51.67;26.55;;;;;;;6.18;95.52;100088.50;5115344;28;20031;-70
2021/04/21 04:58:11;;;;;;;57.03;26.73;;;;;;;6.05;96.13;100088.16;5114998;28;20035;-71
2021/04/21 05:00:38;;;;;;;63.58;27.30;;;;;;;6.17;95.99;100094.69;5115226;28;20036;-70
2021/04/21 05:03:27;;;;;;;66.57;27.70;;;;;;;6.19;96.16;100096.38;5115501;28;20465;-73
2021/04/21 05:05:55;;;;;;;56.15;26.63;;;;;;;6.38;95.77;100095.56;5096893;28;20043;-68
2021/04/21 05:08:25;;;;;;;68.43;26.33;;;;;;;6.39;94.77;100102.56;5115320;28;20066;-70
2021/04/21 05:11:13;;;;;;;96.65;25.92;;;;;;;6.27;94.95;100104.84;5114940;28;20043;-75
2021/04/21 05:13:40;;;;;;;117.60;25.77;;;;;;;6.19;95.58;100100.81;5097368;28;20039;-76
2021/04/21 05:16:06;;;;;;;93.57;26.98;;;;;;;6.24;96.13;100104.09;5114360;28;20059;-74
2021/04/21 05:18:54;;;;;;;108.78;25.67;;;;;;;6.40;95.75;100098.97;5114960;28;20024;-75
2021/04/21 05:21:37;;;;;;;83.50;24.70;;;;;;;6.72;94.30;100106.31;5065229;28;20073;-74
2021/04/21 05:24:21;;;;;;;108.40;25.85;;;;;;;6.60;93.93;100104.22;5114478;28;20023;-73
2021/04/21 05:26:50;;;;;;;100.78;27.20;;;;;;;6.54;94.62;100107.16;5114785;28;20543;-75
2021/04/21 05:29:41;;;;;;;138.35;27.50;;;;;;;6.46;94.86;100109.28;5114647;28;20036;-75
2021/04/21 05:32:13;;;;;;;156.65;27.55;;;;;;;6.58;94.63;100098.16;5113928;28;20046;-73
2021/04/21 05:35:15;;;;;;;118.72;27.67;;;;;;;6.39;95.36;100107.88;5115219;28;20040;-77
2021/04/21 05:38:12;;;;;;;82.35;26.95;;;;;;;6.73;95.92;100107.16;5096646;28;20028;-74
2021/04/21 05:41:13;;;;;;;67.57;27.17;;;;;;;6.92;94.89;100108.00;5100825;28;20063;-71
2021/04/21 05:43:45;;;;;;;138.35;25.95;;;;;;;6.93;93.99;100114.19;5094303;28;20052;-72
2021/04/21 05:46:41;;;;;;;81.95;27.75;;;;;;;7.01;94.41;100110.22;5094206;28;20044;-71
2021/04/21 05:49:15;;;;;;;89.55;25.90;;;;;;;7.41;93.63;100111.81;5093932;28;20020;-70
2021/04/21 05:51:58;;;;;;;64.43;26.27;;;;;;;7.41;92.87;100105.63;5094315;28;20032;-69
2021/04/21 05:54:35;;;;;;;79.50;26.23;;;;;;;7.70;92.27;100104.19;5093703;28;20032;-71
2021/04/21 05:57:22;;;;;;;56.22;26.95;;;;;;;8.18;92.13;100102.59;5093739;28;20485;-72
2021/04/21 06:00:14;;;;;;;47.80;25.38;;;;;;;8.86;88.82;100100.69;5070921;28;20032;-73
2021/04/21 06:02:43;;;;;;;43.42;26.33;;;;;;;9.38;86.79;100111.06;5090254;28;20043;-72
2021/04/21 06:05:13;;;;;;;45.08;24.80;;;;;;;9.91;83.81;100096.41;5098049;28;20096;-73
2021/04/21 06:07:39;;;;;;;43.20;25.95;;;;;;;10.15;82.46;100094.94;5083625;28;20036;-75
2021/04/21 06:10:37;;;;;;;44.25;25.50;;;;;;;10.61;80.59;100118.78;5066913;28;20028;-75
2021/04/21 06:13:03;;;;;;;38.92;25.77;;;;;;;10.12;81.55;100116.44;5040824;28;20066;-78
2021/04/21 06:15:34;;;;;;;35.75;24.67;;;;;;;10.25;81.25;100122.78;5085248;28;20492;-76
2021/04/21 06:18:02;;;;;;;36.47;24.88;;;;;;;10.52;80.13;100114.03;5098275;28;20633;-75
2021/04/21 06:20:35;;;;;;;35.38;24.50;;;;;;;11.02;76.41;100112.66;5102246;28;20380;-68
2021/04/21 06:23:01;;;;;;;37.43;26.30;;;;;;;11.58;75.47;100108.97;5072618;28;20055;-72
2021/04/21 06:25:27;;;;;;;37.13;25.70;;;;;;;11.87;74.13;100117.72;5072685;28;20293;-72
2021/04/21 06:28:06;;;;;;;37.03;24.67;;;;;;;12.16;74.03;100106.84;5054644;28;20028;-71
2021/04/21 06:30:32;;;;;;;39.92;26.63;;;;;;;12.29;73.85;100083.66;5072481;28;20056;-74
2021/04/21 06:32:59;;;;;;;39.10;27.15;;;;;;;12.59;73.38;100085.97;5038233;28;20066;-74
2021/04/21 06:35:29;;;;;;;39.35;26.85;;;;;;;12.86;71.12;100101.88;5072078;28;20082;-72
2021/04/21 06:37:56;;;;;;;40.80;28.23;;;;;;;13.08;72.25;100101.19;5072467;28;20036;-71
2021/04/21 06:40:30;;;;;;;38.67;27.40;;;;;;;12.83;71.30;100089.56;5054072;28;20028;-72
2021/04/21 06:42:57;;;;;;;41.17;27.55;;;;;;;13.18;69.00;100100.41;5072402;28;20050;-75
2021/04/21 06:45:27;;;;;;;40.25;27.20;;;;;;;13.11;69.26;100058.94;5071979;28;20036;-72
2021/04/21 06:47:54;;;;;;;38.17;26.85;;;;;;;13.35;68.14;100092.97;5055079;28;20119;-72
2021/04/21 06:50:27;;;;;;;36.78;27.10;;;;;;;13.15;68.05;100092.59;5072046;28;20028;-74
2021/04/21 06:52:58;;;;;;;37.97;26.48;;;;;;;13.30;69.69;100079.06;5054580;28;20431;-75
2021/04/21 06:55:23;;;;;;;35.58;24.98;;;;;;;13.54;67.58;100105.88;5054846;28;20036;-75
2021/04/21 06:57:49;;;;;;;37.30;26.45;;;;;;;12.74;69.50;100075.97;5076096;28;20455;-74
2021/04/21 07:00:21;;;;;;;40.22;28.17;;;;;;;12.30;71.93;100088.88;5071387;28;20033;-69
2021/04/21 07:02:53;;;;;;;40.83;29.53;;;;;;;12.13;74.97;100091.00;5072426;28;20120;-70
2021/04/21 07:05:32;;;;;;;43.10;30.40;;;;;;;12.02;75.17;100111.31;5072349;28;20035;-74
2021/04/21 07:08:11;;;;;;;39.67;28.65;;;;;;;12.47;72.44;100114.47;5076382;28;20036;-74
2021/04/21 07:10:56;;;;;;;44.10;31.02;;;;;;;12.16;74.82;100112.19;5068323;28;20393;-71
2021/04/21 07:13:27;;;;;;;45.55;31.75;;;;;;;11.56;76.35;100053.91;5078167;28;20429;-72
2021/04/21 07:15:58;;;;;;;47.45;32.28;;;;;;;11.67;77.55;100094.09;5096450;28;20056;-71
2021/04/21 07:18:28;;;;;;;46.83;32.15;;;;;;;11.47;79.37;100090.94;5096094;28;20561;-72
2021/04/21 07:20:56;;;;;;;50.38;32.92;;;;;;;11.61;79.26;100102.56;5096410;28;20028;-71
2021/04/21 07:23:24;;;;;;;50.42;32.33;;;;;;;11.90;78.78;100127.34;5095940;28;20457;-71
2021/04/21 07:25:51;;;;;;;48.75;33.85;;;;;;;11.68;79.38;100069.13;5096151;28;20104;-70
2021/04/21 07:28:18;;;;;;;51.00;33.72;;;;;;;11.99;78.41;100122.22;5096219;28;20107;-72
2021/04/21 07:30:44;;;;;;;48.88;33.08;;;;;;;12.06;77.20;100132.50;5091834;28;20058;-73
2021/04/21 07:33:10;;;;;;;55.03;33.97;;;;;;;11.95;77.84;100126.06;5096955;28;20409;-71
2021/04/21 07:35:36;;;;;;;48.47;33.50;;;;;;;12.00;79.32;100129.28;5078367;28;20044;-72
2021/04/21 07:38:15;;;;;;;48.28;31.48;;;;;;;12.00;77.18;100113.25;5076169;28;20051;-70
2021/04/21 07:40:40;;;;;;;56.65;35.05;;;;;;;12.23;81.34;100124.19;5094773;28;20493;-72
2021/04/21 07:43:11;;;;;;;53.08;33.03;;;;;;;12.33;79.05;100139.47;5094473;28;20110;-71
2021/04/21 07:45:56;;;;;;;53.55;34.22;;;;;;;12.22;78.91;100123.31;5095680;28;20036;-72
2021/04/21 07:48:33;;;;;;;57.17;34.17;;;;;;;12.50;78.29;100138.31;5094917;28;21449;-75
2021/04/21 07:51:20;;;;;;;49.05;34.17;;;;;;;12.37;77.84;100145.50;5077708;28;20089;-73
2021/04/21 07:54:03;;;;;;;46.80;31.27;;;;;;;12.39;76.83;100140.88;5095858;28;20027;-70
2021/04/21 07:56:50;;;;;;;49.25;33.03;;;;;;;12.27;78.59;100153.28;5095580;28;20088;-70
2021/04/21 07:59:21;;;;;;;47.45;33.15;;;;;;;11.95;78.68;100088.63;5084088;28;20039;-70
2021/04/21 08:01:49;;;;;;;48.28;34.08;;;;;;;12.34;78.92;100151.03;5075454;28;20032;-68
2021/04/21 08:04:18;;;;;;;49.85;34.38;;;;;;;12.43;76.71;100152.22;5074647;28;20120;-70
2021/04/21 08:06:45;;;;;;;48.65;33.53;;;;;;;12.50;76.48;100148.16;5075336;28;20024;-70
2021/04/21 08:09:11;;;;;;;50.75;35.03;;;;;;;12.59;77.22;100153.72;5056842;28;20082;-72
2021/04/21 08:11:37;;;;;;;49.25;33.78;;;;;;;12.75;76.97;100153.50;5075328;28;20029;-70
2021/04/21 08:14:03;;;;;;;49.33;33.70;;;;;;;12.69;76.37;100131.66;5075160;28;20040;-75
2021/04/21 08:16:31;;;;;;;51.53;34.63;;;;;;;12.82;77.19;100154.75;5074282;28;20052;-71
2021/04/21 08:19:09;;;;;;;49.30;32.80;;;;;;;12.72;74.66;100147.50;5074912;28;20024;-69
2021/04/21 08:21:45;;;;;;;47.65;32.22;;;;;;;12.75;75.52;100141.94;5057159;28;20486;-70
2021/04/21 08:24:14;;;;;;;53.38;35.63;;;;;;;12.86;75.40;100155.44;5056692;28;20035;-72
2021/04/21 08:26:44;;;;;;;52.20;31.90;;;;;;;12.94;73.30;100153.06;5074959;28;20029;-71
2021/04/21 08:29:12;;;;;;;49.05;32.78;;;;;;;12.96;75.69;100150.28;5073857;28;20040;-77
2021/04/21 08:31:38;;;;;;;46.10;31.83;;;;;;;13.05;74.89;100149.59;5074971;28;20040;-71
2021/04/21 08:34:04;;;;;;;51.25;34.08;;;;;;;12.95;74.24;100128.00;5074376;28;20446;-74
2021/04/21 08:36:30;;;;;;;49.58;34.38;;;;;;;13.20;74.62;100158.38;5074357;28;20044;-72
2021/04/21 08:38:56;;;;;;;49.28;34.67;;;;;;;13.23;76.28;100155.50;5074440;28;20036;-75
2021/04/21 08:41:22;;;;;;;54.35;36.28;;;;;;;13.18;75.66;100156.63;5056306;28;20039;-71
2021/04/21 08:43:50;;;;;;;46.78;32.72;;;;;;;13.21;74.66;100131.47;5074594;28;20033;-71
2021/04/21 08:46:18;;;;;;;50.70;31.10;;;;;;;13.40;72.58;100139.03;5055870;28;20063;-73
2021/04/21 08:48:44;;;;;;;45.55;30.70;;;;;;;13.54;72.59;100156.78;5074385;28;20068;-72
2021/04/21 08:51:18;;;;;;;46.92;32.13;;;;;;;13.45;72.31;100147.59;5074545;28;20041;-69
2021/04/21 08:53:50;;;;;;;46.50;30.48;;;;;;;13.23;71.68;100109.97;5074577;28;20117;-70
2021/04/21 08:56:19;;;;;;;45.25;30.10;;;;;;;13.35;72.89;100131.34;5074208;28;20055;-72
2021/04/21 08:58:47;;;;;;;42.40;29.63;;;;;;;13.56;71.60;100153.00;5080367;28;20036;-73
2021/04/21 09:01:13;;;;;;;43.08;29.48;;;;;;;13.66;70.88;100148.66;5094222;28;20031;-72
2021/04/21 09:03:44;;;;;;;44.13;29.45;;;;;;;13.65;71.00;100148.78;5094185;28;20075;-70
2021/04/21 09:06:10;;;;;;;42.45;28.95;;;;;;;13.57;70.44;100127.91;5094147;28;20039;-72
2021/04/21 09:08:38;;;;;;;44.22;29.42;;;;;;;13.63;70.61;100143.56;5093965;28;20049;-73
2021/04/21 09:11:04;;;;;;;39.67;27.50;;;;;;;13.71;70.73;100118.88;5076132;28;20036;-70
2021/04/21 09:13:30;;;;;;;43.75;29.00;;;;;;;13.95;69.26;100145.63;5093901;28;20035;-69
2021/04/21 09:15:57;;;;;;;37.85;27.10;;;;;;;13.67;68.54;100094.09;5094170;28;20060;-70
2021/04/21 09:18:33;;;;;;;38.40;26.50;;;;;;;14.05;68.00;100130.53;5075635;28;20020;-74
2021/04/21 09:21:01;;;;;;;41.10;26.23;;;;;;;13.96;68.37;100116.00;5093819;28;20085;-73
2021/04/21 09:23:36;;;;;;;40.80;28.73;;;;;;;14.02;67.82;100118.25;5075629;28;20076;-70
2021/04/21 09:26:12;;;;;;;38.95;26.88;;;;;;;14.04;68.17;100112.75;5093993;28;20032;-71
2021/04/21 09:28:40;;;;;;;40.67;28.35;;;;;;;14.17;70.22;100129.59;5092793;28;20036;-74
2021/04/21 09:31:12;;;;;;;43.08;29.13;;;;;;;14.13;68.53;100130.81;5093773;28;20032;-71
2021/04/21 09:33:38;;;;;;;40.45;28.00;;;;;;;14.30;69.00;100132.22;5075342;28;20028;-72
2021/04/21 09:36:04;;;;;;;43.30;29.95;;;;;;;14.52;70.06;100134.09;5075519;28;20044;-73
2021/04/21 09:38:30;;;;;;;43.30;27.98;;;;;;;14.42;67.28;100100.88;5093282;28;20028;-73
2021/04/21 09:41:03;;;;;;;41.40;27.13;;;;;;;14.51;64.96;100101.03;5075480;28;20122;-74
2021/04/21 09:43:35;;;;;;;43.67;28.27;;;;;;;14.42;66.33;100104.41;5093749;28;20051;-69
2021/04/21 09:46:03;;;;;;;40.72;26.52;;;;;;;14.50;66.12;100093.13;5075235;28;20040;-69
2021/04/21 09:48:34;;;;;;;38.47;26.90;;;;;;;14.72;66.50;100106.53;5093152;28;20024;-76
2021/04/21 09:51:01;;;;;;;39.17;26.45;;;;;;;15.00;65.31;100117.75;5093578;28;20403;-71
2021/04/21 09:53:35;;;;;;;38.42;26.73;;;;;;;14.71;64.49;100056.50;5093333;28;20377;-75
2021/04/21 09:56:05;;;;;;;38.35;26.15;;;;;;;15.17;63.21;100119.94;5093424;28;20032;-69
2021/04/21 09:58:50;;;;;;;34.92;25.15;;;;;;;15.15;61.89;100100.38;5092612;28;20427;-74
2021/04/21 10:01:38;;;;;;;33.53;25.20;;;;;;;15.39;62.71;100114.50;5075221;28;20049;-76
2021/04/21 10:04:19;;;;;;;37.67;24.63;;;;;;;15.50;60.41;100113.63;5074818;28;20039;-72
2021/04/21 10:06:53;;;;;;;37.58;24.25;;;;;;;15.78;59.51;100112.19;5093231;28;20050;-73
2021/04/21 10:09:29;;;;;;;33.53;23.13;;;;;;;15.98;60.45;100107.81;5092558;28;20071;-71
2021/04/21 10:12:28;;;;;;;33.75;23.15;;;;;;;16.28;60.02;100107.03;5074824;28;20051;-70
2021/04/21 10:15:12;;;;;;;34.83;23.98;;;;;;;16.21;57.58;100057.41;5093007;28;20036;-72
2021/04/21 10:17:41;;;;;;;30.42;21.42;;;;;;;16.67;54.96;100101.84;5093098;28;20079;-71
2021/04/21 10:20:11;;;;;;;31.25;21.45;;;;;;;16.73;52.70;100096.84;5092894;28;20039;-71
2021/04/21 10:22:41;;;;;;;29.83;21.30;;;;;;;16.75;53.27;100094.84;5091873;28;20451;-72
2021/04/21 10:25:09;;;;;;;27.58;20.70;;;;;;;16.95;53.25;100089.53;5058018;28;20480;-72
2021/04/21 10:27:35;;;;;;;23.42;15.10;;;;;;;16.66;50.95;100043.59;5092477;28;20115;-74
2021/04/21 10:30:03;;;;;;;23.25;15.13;;;;;;;16.82;50.51;100095.16;5092332;28;20054;-73
2021/04/21 10:32:29;;;;;;;21.67;14.55;;;;;;;16.72;47.59;100088.88;5057861;28;20465;-70
2021/04/21 10:34:55;;;;;;;19.20;12.70;;;;;;;16.55;47.93;100088.50;5057950;28;20032;-72
2021/04/21 10:37:20;;;;;;;17.65;12.80;;;;;;;16.52;46.53;100088.78;5092689;28;20033;-72
2021/04/21 10:39:46;;;;;;;17.73;12.23;;;;;;;16.47;47.92;100092.84;5092926;28;20056;-71
2021/04/21 10:42:18;;;;;;;16.23;12.07;;;;;;;16.34;47.05;100079.59;5075736;28;20431;-70
2021/04/21 10:44:45;;;;;;;15.00;9.50;;;;;;;16.30;45.26;100064.69;5107305;28;20064;-72
2021/04/21 10:47:23;;;;;;;16.15;11.43;;;;;;;16.38;43.88;100091.78;5102132;28;20035;-69
2021/04/21 10:49:48;;;;;;;20.90;12.60;;;;;;;16.30;47.43;100087.06;5092583;28;20028;-69
2021/04/21 10:52:23;;;;;;;19.92;13.57;;;;;;;16.31;47.02;100072.66;5092835;28;20039;-73
2021/04/21 10:54:54;;;;;;;17.08;11.57;;;;;;;16.51;47.51;100068.22;5093034;28;20081;-68
2021/04/21 10:57:20;;;;;;;18.63;12.35;;;;;;;16.55;45.92;100072.34;5092066;28;20031;-73
2021/04/21 11:00:05;;;;;;;21.75;13.18;;;;;;;16.68;46.35;100055.09;5077106;28;20390;-70
2021/04/21 11:02:46;;;;;;;16.52;12.77;;;;;;;17.04;44.44;100073.41;5072004;28;20478;-71
2021/04/21 11:05:20;;;;;;;13.57;9.23;;;;;;;17.07;42.48;100073.09;5072253;28;20039;-70
2021/04/21 11:08:15;;;;;;;13.05;9.15;;;;;;;16.87;42.37;100066.81;5072584;28;20435;-73
2021/04/21 11:10:46;;;;;;;15.82;10.65;;;;;;;16.99;42.60;100067.59;5074306;28;20028;-72
2021/04/21 11:13:15;;;;;;;13.15;8.55;;;;;;;17.00;41.02;100042.34;5072178;28;20033;-67
2021/04/21 11:15:43;;;;;;;13.02;8.13;;;;;;;17.32;42.11;100043.94;5053377;28;20029;-69
2021/04/21 11:18:12;;;;;;;14.25;8.15;;;;;;;17.61;38.72;100061.00;5071851;28;20480;-73
2021/04/21 11:20:46;;;;;;;12.88;8.45;;;;;;;17.79;39.29;100060.31;5071719;28;20028;-72
2021/04/21 11:23:54;;;;;;;12.50;7.35;;;;;;;17.82;40.06;100055.47;5072128;28;20377;-71
2021/04/21 11:26:23;;;;;;;13.60;7.88;;;;;;;17.97;39.05;100055.91;5071836;28;20029;-74
2021/04/21 11:29:02;;;;;;;11.00;7.20;;;;;;;17.76;37.68;100031.78;5078541;28;20040;-72
2021/04/21 11:31:40;;;;;;;10.60;7.22;;;;;;;17.48;36.92;100055.03;5073789;28;20046;-75
2021/04/21 11:34:38;;;;;;;10.43;7.30;;;;;;;17.28;38.51;100046.09;5092261;28;20123;-75
2021/04/21 11:37:18;;;;;;;11.38;8.13;;;;;;;17.30;39.75;100037.84;5074387;28;20461;-73
2021/04/21 11:39:43;;;;;;;13.05;7.30;;;;;;;17.37;40.62;100049.75;5091690;28;20032;-71
2021/04/21 11:42:32;;;;;;;11.73;8.20;;;;;;;17.19;39.97;100049.63;5074030;28;20055;-74